sensor_id;sensor_type;location;lat;lon;timestamp;P1;durP1;ratioP1;P2;durP2;ratioP2
44248;SDS011;29923;48.718;9.272;2023-02-03T00:00:51;1.73;;;0.65;;
44248;SDS011;29923;48.718;9.272;2023-02-03T00:03:16;1.95;;;1.00;;
44248;SDS011;29923;48.718;9.272;2023-02-03T00:05:41;1.40;;;0.60;;
44248;SDS011;29923;48.718;9.272;2023-02-03T00:08:07;1.25;;;1.00;;
44248;SDS011;29923;48.718;9.272;2023-02-03T00:10:33;1.50;;;0.50;;
44248;SDS011;29923;48.718;9.272;2023-02-03T00:12:58;1.55;;;0.43;;
44248;SDS011;29923;48.718;9.272;2023-02-03T00:15:24;1.83;;;0.93;;
44248;SDS011;29923;48.718;9.272;2023-02-03T00:17:49;2.17;;;0.68;;
44248;SDS011;29923;48.718;9.272;2023-02-03T00:20:15;1.38;;;0.55;;
44248;SDS011;29923;48.718;9.272;2023-02-03T00:22:40;1.33;;;0.70;;
44248;SDS011;29923;48.718;9.272;2023-02-03T00:25:05;1.63;;;0.70;;
44248;SDS011;29923;48.718;9.272;2023-02-03T00:27:31;0.95;;;0.45;;
44248;SDS011;29923;48.718;9.272;2023-02-03T00:29:57;0.80;;;0.50;;
44248;SDS011;29923;48.718;9.272;2023-02-03T00:32:22;2.08;;;0.70;;
44248;SDS011;29923;48.718;9.272;2023-02-03T00:34:47;0.30;;;0.30;;
44248;SDS011;29923;48.718;9.272;2023-02-03T00:37:13;1.38;;;0.60;;
44248;SDS011;29923;48.718;9.272;2023-02-03T00:39:38;0.85;;;0.40;;
44248;SDS011;29923;48.718;9.272;2023-02-03T00:42:04;2.55;;;0.70;;
44248;SDS011;29923;48.718;9.272;2023-02-03T00:44:30;0.90;;;0.65;;
44248;SDS011;29923;48.718;9.272;2023-02-03T00:46:55;0.40;;;0.38;;
44248;SDS011;29923;48.718;9.272;2023-02-03T00:49:20;0.98;;;0.40;;
44248;SDS011;29923;48.718;9.272;2023-02-03T00:51:46;0.88;;;0.50;;
44248;SDS011;29923;48.718;9.272;2023-02-03T00:54:11;0.47;;;0.28;;
44248;SDS011;29923;48.718;9.272;2023-02-03T00:56:37;1.73;;;0.80;;
44248;SDS011;29923;48.718;9.272;2023-02-03T00:59:03;1.08;;;0.52;;
44248;SDS011;29923;48.718;9.272;2023-02-03T01:01:28;1.63;;;0.50;;
44248;SDS011;29923;48.718;9.272;2023-02-03T01:03:54;1.33;;;0.50;;
44248;SDS011;29923;48.718;9.272;2023-02-03T01:06:20;0.57;;;0.30;;
44248;SDS011;29923;48.718;9.272;2023-02-03T01:08:45;0.82;;;0.70;;
44248;SDS011;29923;48.718;9.272;2023-02-03T01:11:13;1.02;;;0.50;;
44248;SDS011;29923;48.718;9.272;2023-02-03T01:13:41;1.23;;;0.50;;
44248;SDS011;29923;48.718;9.272;2023-02-03T01:16:07;0.68;;;0.38;;
44248;SDS011;29923;48.718;9.272;2023-02-03T01:18:33;1.25;;;0.65;;
44248;SDS011;29923;48.718;9.272;2023-02-03T01:21:03;0.68;;;0.60;;
44248;SDS011;29923;48.718;9.272;2023-02-03T01:23:32;0.88;;;0.50;;
44248;SDS011;29923;48.718;9.272;2023-02-03T01:26:01;1.33;;;0.75;;
44248;SDS011;29923;48.718;9.272;2023-02-03T01:28:30;0.73;;;0.50;;
44248;SDS011;29923;48.718;9.272;2023-02-03T01:30:55;2.60;;;0.75;;
44248;SDS011;29923;48.718;9.272;2023-02-03T01:33:20;0.82;;;0.57;;
44248;SDS011;29923;48.718;9.272;2023-02-03T01:35:46;0.60;;;0.40;;
44248;SDS011;29923;48.718;9.272;2023-02-03T01:38:11;1.02;;;0.55;;
44248;SDS011;29923;48.718;9.272;2023-02-03T01:40:41;2.38;;;0.50;;
44248;SDS011;29923;48.718;9.272;2023-02-03T01:43:08;0.85;;;0.57;;
44248;SDS011;29923;48.718;9.272;2023-02-03T01:45:34;1.67;;;0.88;;
44248;SDS011;29923;48.718;9.272;2023-02-03T01:47:59;4.05;;;0.90;;
44248;SDS011;29923;48.718;9.272;2023-02-03T01:50:32;1.90;;;0.80;;
44248;SDS011;29923;48.718;9.272;2023-02-03T01:53:00;1.98;;;0.70;;
44248;SDS011;29923;48.718;9.272;2023-02-03T01:55:30;3.63;;;0.63;;
44248;SDS011;29923;48.718;9.272;2023-02-03T02:00:31;1.73;;;0.77;;
44248;SDS011;29923;48.718;9.272;2023-02-03T02:02:57;4.22;;;1.08;;
44248;SDS011;29923;48.718;9.272;2023-02-03T02:05:28;3.17;;;0.77;;
44248;SDS011;29923;48.718;9.272;2023-02-03T02:10:22;1.77;;;0.75;;
44248;SDS011;29923;48.718;9.272;2023-02-03T02:12:48;1.20;;;0.88;;
44248;SDS011;29923;48.718;9.272;2023-02-03T02:15:13;1.02;;;0.75;;
44248;SDS011;29923;48.718;9.272;2023-02-03T02:17:49;3.38;;;0.80;;
44248;SDS011;29923;48.718;9.272;2023-02-03T02:22:59;1.00;;;0.82;;
44248;SDS011;29923;48.718;9.272;2023-02-03T02:25:51;1.13;;;0.70;;
44248;SDS011;29923;48.718;9.272;2023-02-03T02:34:19;3.67;;;1.25;;
44248;SDS011;29923;48.718;9.272;2023-02-03T02:37:04;2.50;;;1.15;;
44248;SDS011;29923;48.718;9.272;2023-02-03T02:42:06;4.43;;;1.20;;
44248;SDS011;29923;48.718;9.272;2023-02-03T02:44:38;5.68;;;1.40;;
44248;SDS011;29923;48.718;9.272;2023-02-03T02:47:17;2.33;;;0.88;;
44248;SDS011;29923;48.718;9.272;2023-02-03T02:50:04;4.90;;;1.42;;
44248;SDS011;29923;48.718;9.272;2023-02-03T02:52:34;3.13;;;1.30;;
44248;SDS011;29923;48.718;9.272;2023-02-03T02:55:02;2.97;;;0.95;;
44248;SDS011;29923;48.718;9.272;2023-02-03T02:57:32;6.07;;;1.23;;
44248;SDS011;29923;48.718;9.272;2023-02-03T02:59:58;4.90;;;1.52;;
44248;SDS011;29923;48.718;9.272;2023-02-03T03:02:30;5.60;;;1.60;;
44248;SDS011;29923;48.718;9.272;2023-02-03T03:07:23;4.63;;;1.40;;
44248;SDS011;29923;48.718;9.272;2023-02-03T03:09:52;1.92;;;1.15;;
44248;SDS011;29923;48.718;9.272;2023-02-03T03:12:20;1.98;;;1.20;;
44248;SDS011;29923;48.718;9.272;2023-02-03T03:14:49;2.88;;;1.52;;
44248;SDS011;29923;48.718;9.272;2023-02-03T03:17:25;3.38;;;1.30;;
44248;SDS011;29923;48.718;9.272;2023-02-03T03:20:03;4.88;;;1.50;;
44248;SDS011;29923;48.718;9.272;2023-02-03T03:22:33;3.33;;;1.95;;
44248;SDS011;29923;48.718;9.272;2023-02-03T03:25:00;6.28;;;2.83;;
44248;SDS011;29923;48.718;9.272;2023-02-03T03:27:29;3.75;;;1.15;;
44248;SDS011;29923;48.718;9.272;2023-02-03T03:32:28;3.50;;;1.30;;
44248;SDS011;29923;48.718;9.272;2023-02-03T03:34:56;2.20;;;1.02;;
44248;SDS011;29923;48.718;9.272;2023-02-03T03:37:24;3.63;;;1.17;;
44248;SDS011;29923;48.718;9.272;2023-02-03T03:39:56;1.48;;;0.90;;
44248;SDS011;29923;48.718;9.272;2023-02-03T03:47:42;2.28;;;1.02;;
44248;SDS011;29923;48.718;9.272;2023-02-03T03:50:11;3.15;;;1.00;;
44248;SDS011;29923;48.718;9.272;2023-02-03T03:52:39;2.17;;;0.98;;
44248;SDS011;29923;48.718;9.272;2023-02-03T03:55:07;2.00;;;0.98;;
44248;SDS011;29923;48.718;9.272;2023-02-03T03:57:44;2.25;;;0.82;;
44248;SDS011;29923;48.718;9.272;2023-02-03T04:00:14;4.00;;;1.48;;
44248;SDS011;29923;48.718;9.272;2023-02-03T04:02:42;3.85;;;0.90;;
44248;SDS011;29923;48.718;9.272;2023-02-03T04:05:10;3.35;;;0.93;;
44248;SDS011;29923;48.718;9.272;2023-02-03T04:07:37;2.78;;;1.08;;
44248;SDS011;29923;48.718;9.272;2023-02-03T04:10:04;3.78;;;0.68;;
44248;SDS011;29923;48.718;9.272;2023-02-03T04:12:33;1.98;;;0.85;;
44248;SDS011;29923;48.718;9.272;2023-02-03T04:14:59;0.70;;;0.50;;
44248;SDS011;29923;48.718;9.272;2023-02-03T04:17:24;4.05;;;0.85;;
44248;SDS011;29923;48.718;9.272;2023-02-03T04:19:49;1.30;;;0.80;;
44248;SDS011;29923;48.718;9.272;2023-02-03T04:22:15;1.98;;;0.73;;
44248;SDS011;29923;48.718;9.272;2023-02-03T04:24:40;2.88;;;0.90;;
44248;SDS011;29923;48.718;9.272;2023-02-03T04:27:05;1.25;;;0.70;;
44248;SDS011;29923;48.718;9.272;2023-02-03T04:29:31;0.88;;;0.40;;
44248;SDS011;29923;48.718;9.272;2023-02-03T04:31:56;3.10;;;0.80;;
44248;SDS011;29923;48.718;9.272;2023-02-03T04:34:21;3.83;;;0.93;;
44248;SDS011;29923;48.718;9.272;2023-02-03T04:36:47;6.50;;;3.53;;
44248;SDS011;29923;48.718;9.272;2023-02-03T04:39:12;2.33;;;1.08;;
44248;SDS011;29923;48.718;9.272;2023-02-03T04:41:37;3.10;;;1.25;;
44248;SDS011;29923;48.718;9.272;2023-02-03T04:44:03;0.70;;;0.70;;
44248;SDS011;29923;48.718;9.272;2023-02-03T04:46:28;2.38;;;0.90;;
44248;SDS011;29923;48.718;9.272;2023-02-03T04:48:53;2.85;;;0.68;;
44248;SDS011;29923;48.718;9.272;2023-02-03T04:51:19;2.53;;;0.68;;
44248;SDS011;29923;48.718;9.272;2023-02-03T04:53:44;1.67;;;1.15;;
44248;SDS011;29923;48.718;9.272;2023-02-03T04:56:09;2.35;;;0.95;;
44248;SDS011;29923;48.718;9.272;2023-02-03T04:58:35;1.20;;;0.95;;
44248;SDS011;29923;48.718;9.272;2023-02-03T05:01:04;1.27;;;0.70;;
44248;SDS011;29923;48.718;9.272;2023-02-03T05:03:31;2.72;;;0.90;;
44248;SDS011;29923;48.718;9.272;2023-02-03T05:05:56;3.92;;;0.95;;
44248;SDS011;29923;48.718;9.272;2023-02-03T05:08:22;3.40;;;1.02;;
44248;SDS011;29923;48.718;9.272;2023-02-03T05:10:47;1.58;;;0.82;;
44248;SDS011;29923;48.718;9.272;2023-02-03T05:13:13;2.85;;;1.95;;
44248;SDS011;29923;48.718;9.272;2023-02-03T05:15:38;6.82;;;1.23;;
44248;SDS011;29923;48.718;9.272;2023-02-03T05:18:03;1.13;;;0.90;;
44248;SDS011;29923;48.718;9.272;2023-02-03T05:20:29;5.43;;;0.88;;
44248;SDS011;29923;48.718;9.272;2023-02-03T05:22:54;4.00;;;1.10;;
44248;SDS011;29923;48.718;9.272;2023-02-03T05:25:19;2.45;;;1.00;;
44248;SDS011;29923;48.718;9.272;2023-02-03T05:27:45;5.45;;;0.80;;
44248;SDS011;29923;48.718;9.272;2023-02-03T05:30:10;5.47;;;1.13;;
44248;SDS011;29923;48.718;9.272;2023-02-03T05:32:36;4.75;;;1.17;;
44248;SDS011;29923;48.718;9.272;2023-02-03T05:35:01;3.08;;;0.88;;
44248;SDS011;29923;48.718;9.272;2023-02-03T05:37:26;5.25;;;1.00;;
44248;SDS011;29923;48.718;9.272;2023-02-03T05:39:52;3.30;;;1.10;;
44248;SDS011;29923;48.718;9.272;2023-02-03T05:42:17;4.10;;;0.88;;
44248;SDS011;29923;48.718;9.272;2023-02-03T05:44:42;5.70;;;1.33;;
44248;SDS011;29923;48.718;9.272;2023-02-03T05:47:08;3.65;;;0.80;;
44248;SDS011;29923;48.718;9.272;2023-02-03T05:49:33;4.78;;;0.88;;
44248;SDS011;29923;48.718;9.272;2023-02-03T05:51:58;17.38;;;1.42;;
44248;SDS011;29923;48.718;9.272;2023-02-03T05:54:24;3.70;;;1.50;;
44248;SDS011;29923;48.718;9.272;2023-02-03T05:56:49;1.58;;;0.85;;
44248;SDS011;29923;48.718;9.272;2023-02-03T05:59:15;2.28;;;1.27;;
44248;SDS011;29923;48.718;9.272;2023-02-03T06:01:40;1.95;;;1.05;;
44248;SDS011;29923;48.718;9.272;2023-02-03T06:04:05;2.67;;;1.48;;
44248;SDS011;29923;48.718;9.272;2023-02-03T06:06:31;3.75;;;0.90;;
44248;SDS011;29923;48.718;9.272;2023-02-03T06:09:00;3.13;;;1.13;;
44248;SDS011;29923;48.718;9.272;2023-02-03T06:11:26;3.83;;;1.33;;
44248;SDS011;29923;48.718;9.272;2023-02-03T06:13:52;1.52;;;1.13;;
44248;SDS011;29923;48.718;9.272;2023-02-03T06:16:18;3.40;;;1.23;;
44248;SDS011;29923;48.718;9.272;2023-02-03T06:18:43;0.90;;;0.73;;
44248;SDS011;29923;48.718;9.272;2023-02-03T06:21:08;3.38;;;0.63;;
44248;SDS011;29923;48.718;9.272;2023-02-03T06:23:34;4.22;;;1.05;;
44248;SDS011;29923;48.718;9.272;2023-02-03T06:25:59;3.38;;;1.20;;
44248;SDS011;29923;48.718;9.272;2023-02-03T06:28:25;2.10;;;0.90;;
44248;SDS011;29923;48.718;9.272;2023-02-03T06:30:50;4.03;;;1.00;;
44248;SDS011;29923;48.718;9.272;2023-02-03T06:33:17;3.13;;;1.30;;
44248;SDS011;29923;48.718;9.272;2023-02-03T06:35:43;4.43;;;1.30;;
44248;SDS011;29923;48.718;9.272;2023-02-03T06:38:08;1.95;;;1.00;;
44248;SDS011;29923;48.718;9.272;2023-02-03T06:40:33;2.95;;;1.05;;
44248;SDS011;29923;48.718;9.272;2023-02-03T06:42:59;4.53;;;1.15;;
44248;SDS011;29923;48.718;9.272;2023-02-03T06:45:24;3.03;;;1.25;;
44248;SDS011;29923;48.718;9.272;2023-02-03T06:47:49;3.78;;;1.02;;
44248;SDS011;29923;48.718;9.272;2023-02-03T06:50:15;4.88;;;0.57;;
44248;SDS011;29923;48.718;9.272;2023-02-03T06:52:40;1.08;;;0.60;;
44248;SDS011;29923;48.718;9.272;2023-02-03T06:55:06;3.38;;;0.98;;
44248;SDS011;29923;48.718;9.272;2023-02-03T06:57:32;2.25;;;1.05;;
44248;SDS011;29923;48.718;9.272;2023-02-03T06:59:57;1.85;;;0.73;;
44248;SDS011;29923;48.718;9.272;2023-02-03T07:02:23;6.75;;;1.10;;
44248;SDS011;29923;48.718;9.272;2023-02-03T07:04:48;4.85;;;1.20;;
44248;SDS011;29923;48.718;9.272;2023-02-03T07:07:14;2.45;;;0.85;;
44248;SDS011;29923;48.718;9.272;2023-02-03T07:09:39;2.45;;;1.10;;
44248;SDS011;29923;48.718;9.272;2023-02-03T07:12:05;4.78;;;1.10;;
44248;SDS011;29923;48.718;9.272;2023-02-03T07:14:31;3.20;;;0.88;;
44248;SDS011;29923;48.718;9.272;2023-02-03T07:16:59;3.38;;;0.80;;
44248;SDS011;29923;48.718;9.272;2023-02-03T07:19:24;3.42;;;1.00;;
44248;SDS011;29923;48.718;9.272;2023-02-03T07:21:49;3.55;;;1.10;;
44248;SDS011;29923;48.718;9.272;2023-02-03T07:24:15;2.35;;;0.90;;
44248;SDS011;29923;48.718;9.272;2023-02-03T07:26:40;1.10;;;0.70;;
44248;SDS011;29923;48.718;9.272;2023-02-03T07:29:06;0.88;;;0.60;;
44248;SDS011;29923;48.718;9.272;2023-02-03T07:31:31;5.45;;;1.13;;
44248;SDS011;29923;48.718;9.272;2023-02-03T07:33:56;1.60;;;1.15;;
44248;SDS011;29923;48.718;9.272;2023-02-03T07:36:22;1.90;;;0.77;;
44248;SDS011;29923;48.718;9.272;2023-02-03T07:38:48;3.17;;;1.13;;
44248;SDS011;29923;48.718;9.272;2023-02-03T07:41:14;3.65;;;1.40;;
44248;SDS011;29923;48.718;9.272;2023-02-03T07:43:39;4.22;;;1.63;;
44248;SDS011;29923;48.718;9.272;2023-02-03T07:46:04;3.03;;;1.40;;
44248;SDS011;29923;48.718;9.272;2023-02-03T07:48:30;5.47;;;1.67;;
44248;SDS011;29923;48.718;9.272;2023-02-03T07:50:55;3.78;;;1.60;;
44248;SDS011;29923;48.718;9.272;2023-02-03T07:53:20;5.13;;;1.30;;
44248;SDS011;29923;48.718;9.272;2023-02-03T07:55:46;1.23;;;1.02;;
44248;SDS011;29923;48.718;9.272;2023-02-03T07:58:11;4.38;;;1.77;;
44248;SDS011;29923;48.718;9.272;2023-02-03T08:00:36;5.35;;;2.60;;
44248;SDS011;29923;48.718;9.272;2023-02-03T08:03:02;2.53;;;1.33;;
44248;SDS011;29923;48.718;9.272;2023-02-03T08:05:27;3.47;;;1.40;;
44248;SDS011;29923;48.718;9.272;2023-02-03T08:07:54;9.35;;;1.40;;
44248;SDS011;29923;48.718;9.272;2023-02-03T08:10:19;4.68;;;1.30;;
44248;SDS011;29923;48.718;9.272;2023-02-03T08:12:45;5.32;;;1.35;;
44248;SDS011;29923;48.718;9.272;2023-02-03T08:15:11;4.60;;;1.00;;
44248;SDS011;29923;48.718;9.272;2023-02-03T08:17:36;4.93;;;1.42;;
44248;SDS011;29923;48.718;9.272;2023-02-03T08:20:04;5.28;;;1.50;;
44248;SDS011;29923;48.718;9.272;2023-02-03T08:22:30;6.45;;;1.55;;
44248;SDS011;29923;48.718;9.272;2023-02-03T08:24:55;6.00;;;1.80;;
44248;SDS011;29923;48.718;9.272;2023-02-03T08:27:21;5.15;;;1.45;;
44248;SDS011;29923;48.718;9.272;2023-02-03T08:29:47;3.17;;;1.52;;
44248;SDS011;29923;48.718;9.272;2023-02-03T08:32:13;2.65;;;1.15;;
44248;SDS011;29923;48.718;9.272;2023-02-03T08:34:40;6.18;;;1.90;;
44248;SDS011;29923;48.718;9.272;2023-02-03T08:37:05;3.95;;;1.65;;
44248;SDS011;29923;48.718;9.272;2023-02-03T08:39:31;3.90;;;1.52;;
44248;SDS011;29923;48.718;9.272;2023-02-03T08:41:57;4.43;;;1.52;;
44248;SDS011;29923;48.718;9.272;2023-02-03T08:44:23;2.00;;;1.30;;
44248;SDS011;29923;48.718;9.272;2023-02-03T08:46:49;8.35;;;1.88;;
44248;SDS011;29923;48.718;9.272;2023-02-03T08:49:15;1.45;;;1.08;;
44248;SDS011;29923;48.718;9.272;2023-02-03T08:51:41;2.97;;;1.27;;
44248;SDS011;29923;48.718;9.272;2023-02-03T08:54:06;11.63;;;3.03;;
44248;SDS011;29923;48.718;9.272;2023-02-03T08:56:32;4.47;;;1.60;;
44248;SDS011;29923;48.718;9.272;2023-02-03T08:58:58;10.52;;;2.28;;
44248;SDS011;29923;48.718;9.272;2023-02-03T09:01:23;8.73;;;2.85;;
44248;SDS011;29923;48.718;9.272;2023-02-03T09:03:49;3.80;;;1.60;;
44248;SDS011;29923;48.718;9.272;2023-02-03T09:06:14;4.68;;;1.58;;
44248;SDS011;29923;48.718;9.272;2023-02-03T09:08:43;4.05;;;1.80;;
44248;SDS011;29923;48.718;9.272;2023-02-03T09:11:10;8.38;;;1.88;;
44248;SDS011;29923;48.718;9.272;2023-02-03T09:13:36;4.55;;;1.70;;
44248;SDS011;29923;48.718;9.272;2023-02-03T09:16:02;2.67;;;1.27;;
44248;SDS011;29923;48.718;9.272;2023-02-03T09:18:29;3.70;;;1.35;;
44248;SDS011;29923;48.718;9.272;2023-02-03T09:21:04;3.08;;;1.20;;
44248;SDS011;29923;48.718;9.272;2023-02-03T09:23:31;6.03;;;1.40;;
44248;SDS011;29923;48.718;9.272;2023-02-03T09:26:03;4.13;;;0.80;;
44248;SDS011;29923;48.718;9.272;2023-02-03T09:28:29;2.90;;;1.27;;
44248;SDS011;29923;48.718;9.272;2023-02-03T09:30:58;3.28;;;1.42;;
44248;SDS011;29923;48.718;9.272;2023-02-03T09:33:27;8.35;;;1.50;;
44248;SDS011;29923;48.718;9.272;2023-02-03T09:35:53;3.35;;;1.65;;
44248;SDS011;29923;48.718;9.272;2023-02-03T09:38:19;2.60;;;1.40;;
44248;SDS011;29923;48.718;9.272;2023-02-03T09:40:45;5.72;;;1.52;;
44248;SDS011;29923;48.718;9.272;2023-02-03T09:45:46;10.95;;;1.80;;
44248;SDS011;29923;48.718;9.272;2023-02-03T09:48:17;4.47;;;1.40;;
44248;SDS011;29923;48.718;9.272;2023-02-03T09:50:44;9.82;;;1.38;;
44248;SDS011;29923;48.718;9.272;2023-02-03T09:53:13;2.13;;;0.90;;
44248;SDS011;29923;48.718;9.272;2023-02-03T09:55:52;1.52;;;1.33;;
44248;SDS011;29923;48.718;9.272;2023-02-03T09:58:19;2.33;;;1.00;;
44248;SDS011;29923;48.718;9.272;2023-02-03T10:00:49;5.25;;;1.40;;
44248;SDS011;29923;48.718;9.272;2023-02-03T10:08:58;4.20;;;1.58;;
44248;SDS011;29923;48.718;9.272;2023-02-03T10:22:19;3.03;;;1.40;;
44248;SDS011;29923;48.718;9.272;2023-02-03T10:27:19;3.28;;;1.20;;
44248;SDS011;29923;48.718;9.272;2023-02-03T10:29:48;5.40;;;1.50;;
44248;SDS011;29923;48.718;9.272;2023-02-03T10:32:23;6.10;;;1.40;;
44248;SDS011;29923;48.718;9.272;2023-02-03T10:34:50;4.60;;;1.17;;
44248;SDS011;29923;48.718;9.272;2023-02-03T10:39:50;5.03;;;0.82;;
44248;SDS011;29923;48.718;9.272;2023-02-03T10:42:16;6.45;;;1.08;;
44248;SDS011;29923;48.718;9.272;2023-02-03T10:44:43;2.13;;;1.20;;
44248;SDS011;29923;48.718;9.272;2023-02-03T10:47:16;4.90;;;1.00;;
44248;SDS011;29923;48.718;9.272;2023-02-03T10:49:45;3.60;;;1.20;;
44248;SDS011;29923;48.718;9.272;2023-02-03T10:52:23;2.25;;;0.95;;
44248;SDS011;29923;48.718;9.272;2023-02-03T10:54:59;1.30;;;0.70;;
44248;SDS011;29923;48.718;9.272;2023-02-03T10:57:33;1.85;;;0.98;;
44248;SDS011;29923;48.718;9.272;2023-02-03T11:00:06;2.80;;;0.98;;
44248;SDS011;29923;48.718;9.272;2023-02-03T11:02:44;1.23;;;0.70;;
44248;SDS011;29923;48.718;9.272;2023-02-03T11:07:41;2.67;;;1.05;;
44248;SDS011;29923;48.718;9.272;2023-02-03T11:15:58;6.45;;;0.85;;
44248;SDS011;29923;48.718;9.272;2023-02-03T11:18:26;9.00;;;1.75;;
44248;SDS011;29923;48.718;9.272;2023-02-03T11:20:56;5.78;;;0.88;;
44248;SDS011;29923;48.718;9.272;2023-02-03T11:23:22;0.75;;;0.55;;
44248;SDS011;29923;48.718;9.272;2023-02-03T11:25:48;6.13;;;1.02;;
44248;SDS011;29923;48.718;9.272;2023-02-03T11:28:13;2.90;;;0.88;;
44248;SDS011;29923;48.718;9.272;2023-02-03T11:30:38;5.95;;;1.08;;
44248;SDS011;29923;48.718;9.272;2023-02-03T11:33:14;3.03;;;0.88;;
44248;SDS011;29923;48.718;9.272;2023-02-03T11:35:51;2.30;;;0.68;;
44248;SDS011;29923;48.718;9.272;2023-02-03T11:38:29;3.20;;;0.90;;
44248;SDS011;29923;48.718;9.272;2023-02-03T11:40:59;2.05;;;0.70;;
44248;SDS011;29923;48.718;9.272;2023-02-03T11:43:27;1.50;;;0.55;;
44248;SDS011;29923;48.718;9.272;2023-02-03T11:45:53;0.93;;;0.45;;
44248;SDS011;29923;48.718;9.272;2023-02-03T11:51:23;2.35;;;0.70;;
44248;SDS011;29923;48.718;9.272;2023-02-03T11:57:21;1.00;;;0.60;;
44248;SDS011;29923;48.718;9.272;2023-02-03T12:02:51;2.15;;;0.40;;
44248;SDS011;29923;48.718;9.272;2023-02-03T12:05:32;0.57;;;0.55;;
44248;SDS011;29923;48.718;9.272;2023-02-03T12:08:46;3.17;;;0.68;;
44248;SDS011;29923;48.718;9.272;2023-02-03T12:14:14;1.10;;;0.68;;
44248;SDS011;29923;48.718;9.272;2023-02-03T12:30:53;0.50;;;0.50;;
44248;SDS011;29923;48.718;9.272;2023-02-03T12:33:29;0.40;;;0.40;;
44248;SDS011;29923;48.718;9.272;2023-02-03T12:36:05;1.92;;;1.02;;
44248;SDS011;29923;48.718;9.272;2023-02-03T12:38:35;4.40;;;0.63;;
44248;SDS011;29923;48.718;9.272;2023-02-03T12:41:06;0.60;;;0.50;;
44248;SDS011;29923;48.718;9.272;2023-02-03T12:43:37;1.33;;;0.43;;
44248;SDS011;29923;48.718;9.272;2023-02-03T12:46:06;0.82;;;0.40;;
44248;SDS011;29923;48.718;9.272;2023-02-03T12:48:41;1.75;;;0.70;;
44248;SDS011;29923;48.718;9.272;2023-02-03T12:51:13;0.32;;;0.30;;
44248;SDS011;29923;48.718;9.272;2023-02-03T12:53:47;1.60;;;0.52;;
44248;SDS011;29923;48.718;9.272;2023-02-03T12:56:15;0.30;;;0.30;;
44248;SDS011;29923;48.718;9.272;2023-02-03T12:58:46;1.40;;;0.40;;
44248;SDS011;29923;48.718;9.272;2023-02-03T13:01:21;1.15;;;0.60;;
44248;SDS011;29923;48.718;9.272;2023-02-03T13:03:59;0.50;;;0.30;;
44248;SDS011;29923;48.718;9.272;2023-02-03T13:09:39;0.65;;;0.40;;
44248;SDS011;29923;48.718;9.272;2023-02-03T13:14:56;1.60;;;0.60;;
44248;SDS011;29923;48.718;9.272;2023-02-03T13:17:30;0.45;;;0.45;;
44248;SDS011;29923;48.718;9.272;2023-02-03T13:23:00;0.60;;;0.50;;
44248;SDS011;29923;48.718;9.272;2023-02-03T13:34:20;3.70;;;0.70;;
44248;SDS011;29923;48.718;9.272;2023-02-03T13:39:59;1.02;;;0.60;;
44248;SDS011;29923;48.718;9.272;2023-02-03T13:42:57;0.95;;;0.60;;
44248;SDS011;29923;48.718;9.272;2023-02-03T13:45:32;0.30;;;0.30;;
44248;SDS011;29923;48.718;9.272;2023-02-03T13:48:14;0.45;;;0.40;;
44248;SDS011;29923;48.718;9.272;2023-02-03T13:50:42;0.82;;;0.50;;
44248;SDS011;29923;48.718;9.272;2023-02-03T13:53:18;0.60;;;0.40;;
44248;SDS011;29923;48.718;9.272;2023-02-03T13:55:52;0.43;;;0.32;;
44248;SDS011;29923;48.718;9.272;2023-02-03T13:58:23;0.98;;;0.63;;
44248;SDS011;29923;48.718;9.272;2023-02-03T14:05:44;0.55;;;0.40;;
44248;SDS011;29923;48.718;9.272;2023-02-03T14:13:34;0.70;;;0.50;;
44248;SDS011;29923;48.718;9.272;2023-02-03T14:16:33;0.40;;;0.40;;
44248;SDS011;29923;48.718;9.272;2023-02-03T14:18:51;1.92;;;0.30;;
44248;SDS011;29923;48.718;9.272;2023-02-03T14:21:21;1.13;;;0.40;;
44248;SDS011;29923;48.718;9.272;2023-02-03T14:23:52;0.63;;;0.38;;
44248;SDS011;29923;48.718;9.272;2023-02-03T14:26:31;1.38;;;0.47;;
44248;SDS011;29923;48.718;9.272;2023-02-03T14:28:59;1.35;;;0.60;;
44248;SDS011;29923;48.718;9.272;2023-02-03T14:31:25;1.15;;;0.40;;
44248;SDS011;29923;48.718;9.272;2023-02-03T14:33:57;1.70;;;0.60;;
44248;SDS011;29923;48.718;9.272;2023-02-03T14:47:39;0.52;;;0.30;;
44248;SDS011;29923;48.718;9.272;2023-02-03T14:53:08;1.77;;;0.50;;
44248;SDS011;29923;48.718;9.272;2023-02-03T14:58:24;0.85;;;0.50;;
44248;SDS011;29923;48.718;9.272;2023-02-03T15:00:55;0.40;;;0.30;;
44248;SDS011;29923;48.718;9.272;2023-02-03T15:03:21;0.40;;;0.30;;
44248;SDS011;29923;48.718;9.272;2023-02-03T15:11:15;1.25;;;0.38;;
44248;SDS011;29923;48.718;9.272;2023-02-03T15:13:46;0.73;;;0.50;;
44248;SDS011;29923;48.718;9.272;2023-02-03T15:16:13;0.32;;;0.32;;
44248;SDS011;29923;48.718;9.272;2023-02-03T15:18:41;0.65;;;0.40;;
44248;SDS011;29923;48.718;9.272;2023-02-03T15:21:17;0.38;;;0.30;;
44248;SDS011;29923;48.718;9.272;2023-02-03T15:23:44;1.10;;;0.40;;
44248;SDS011;29923;48.718;9.272;2023-02-03T15:26:22;0.32;;;0.22;;
44248;SDS011;29923;48.718;9.272;2023-02-03T15:28:52;0.80;;;0.40;;
44248;SDS011;29923;48.718;9.272;2023-02-03T15:34:16;0.40;;;0.40;;
44248;SDS011;29923;48.718;9.272;2023-02-03T15:36:46;0.47;;;0.25;;
44248;SDS011;29923;48.718;9.272;2023-02-03T15:39:16;0.85;;;0.60;;
44248;SDS011;29923;48.718;9.272;2023-02-03T15:41:43;1.10;;;0.40;;
44248;SDS011;29923;48.718;9.272;2023-02-03T15:44:12;0.47;;;0.30;;
44248;SDS011;29923;48.718;9.272;2023-02-03T15:46:46;0.52;;;0.40;;
44248;SDS011;29923;48.718;9.272;2023-02-03T15:49:17;1.27;;;0.30;;
44248;SDS011;29923;48.718;9.272;2023-02-03T15:51:47;0.40;;;0.40;;
44248;SDS011;29923;48.718;9.272;2023-02-03T15:54:32;1.10;;;0.50;;
44248;SDS011;29923;48.718;9.272;2023-02-03T15:57:06;1.10;;;0.50;;
44248;SDS011;29923;48.718;9.272;2023-02-03T15:59:42;1.08;;;0.50;;
44248;SDS011;29923;48.718;9.272;2023-02-03T16:02:18;0.77;;;0.30;;
44248;SDS011;29923;48.718;9.272;2023-02-03T16:04:45;1.77;;;0.60;;
44248;SDS011;29923;48.718;9.272;2023-02-03T16:07:15;0.20;;;0.20;;
44248;SDS011;29923;48.718;9.272;2023-02-03T16:09:43;0.90;;;0.43;;
44248;SDS011;29923;48.718;9.272;2023-02-03T16:14:53;2.70;;;0.57;;
44248;SDS011;29923;48.718;9.272;2023-02-03T16:19:48;0.60;;;0.50;;
44248;SDS011;29923;48.718;9.272;2023-02-03T16:25:18;0.47;;;0.40;;
44248;SDS011;29923;48.718;9.272;2023-02-03T16:33:43;1.98;;;0.55;;
44248;SDS011;29923;48.718;9.272;2023-02-03T16:36:30;1.00;;;0.70;;
44248;SDS011;29923;48.718;9.272;2023-02-03T16:41:58;2.55;;;0.88;;
44248;SDS011;29923;48.718;9.272;2023-02-03T16:44:44;1.23;;;0.50;;
44248;SDS011;29923;48.718;9.272;2023-02-03T16:47:28;1.83;;;0.50;;
44248;SDS011;29923;48.718;9.272;2023-02-03T16:52:59;1.15;;;0.70;;
44248;SDS011;29923;48.718;9.272;2023-02-03T16:55:25;0.90;;;0.60;;
44248;SDS011;29923;48.718;9.272;2023-02-03T16:57:50;1.73;;;0.75;;
44248;SDS011;29923;48.718;9.272;2023-02-03T17:00:16;0.75;;;0.40;;
44248;SDS011;29923;48.718;9.272;2023-02-03T17:02:50;0.88;;;0.40;;
44248;SDS011;29923;48.718;9.272;2023-02-03T17:05:15;1.67;;;0.60;;
44248;SDS011;29923;48.718;9.272;2023-02-03T17:07:43;1.38;;;0.73;;
44248;SDS011;29923;48.718;9.272;2023-02-03T17:10:09;1.35;;;0.52;;
44248;SDS011;29923;48.718;9.272;2023-02-03T17:12:35;1.60;;;0.60;;
44248;SDS011;29923;48.718;9.272;2023-02-03T17:15:02;0.85;;;0.73;;
44248;SDS011;29923;48.718;9.272;2023-02-03T17:17:30;1.17;;;0.60;;
44248;SDS011;29923;48.718;9.272;2023-02-03T17:19:55;12.90;;;0.80;;
44248;SDS011;29923;48.718;9.272;2023-02-03T17:22:23;2.45;;;0.63;;
44248;SDS011;29923;48.718;9.272;2023-02-03T17:24:48;3.75;;;0.65;;
44248;SDS011;29923;48.718;9.272;2023-02-03T17:27:13;1.77;;;0.80;;
44248;SDS011;29923;48.718;9.272;2023-02-03T17:29:39;1.30;;;0.70;;
44248;SDS011;29923;48.718;9.272;2023-02-03T17:32:04;1.67;;;0.50;;
44248;SDS011;29923;48.718;9.272;2023-02-03T17:34:29;0.60;;;0.50;;
44248;SDS011;29923;48.718;9.272;2023-02-03T17:36:55;1.02;;;0.63;;